sensor_id;sensor_type;location;lat;lon;timestamp;P1;durP1;ratioP1;P2;durP2;ratioP2
50309;SDS011;36207;51.850;21.698;2023-06-26T00:02:02;12.90;;;8.00;;
50309;SDS011;36207;51.850;21.698;2023-06-26T00:04:28;11.50;;;7.90;;
50309;SDS011;36207;51.850;21.698;2023-06-26T00:06:54;10.90;;;8.70;;
50309;SDS011;36207;51.850;21.698;2023-06-26T00:09:20;11.30;;;8.80;;
50309;SDS011;36207;51.850;21.698;2023-06-26T00:11:46;12.20;;;8.10;;
50309;SDS011;36207;51.850;21.698;2023-06-26T00:14:12;11.60;;;7.60;;
50309;SDS011;36207;51.850;21.698;2023-06-26T00:16:38;8.90;;;6.80;;
50309;SDS011;36207;51.850;21.698;2023-06-26T00:19:04;9.10;;;6.80;;
50309;SDS011;36207;51.850;21.698;2023-06-26T00:21:30;8.90;;;7.20;;
50309;SDS011;36207;51.850;21.698;2023-06-26T00:23:56;11.40;;;7.90;;
50309;SDS011;36207;51.850;21.698;2023-06-26T00:26:22;10.80;;;7.80;;
50309;SDS011;36207;51.850;21.698;2023-06-26T00:28:49;10.70;;;7.80;;
50309;SDS011;36207;51.850;21.698;2023-06-26T00:31:15;10.80;;;8.00;;
50309;SDS011;36207;51.850;21.698;2023-06-26T00:33:41;11.80;;;8.70;;
50309;SDS011;36207;51.850;21.698;2023-06-26T00:36:07;11.20;;;7.30;;
50309;SDS011;36207;51.850;21.698;2023-06-26T00:38:34;10.10;;;8.20;;
50309;SDS011;36207;51.850;21.698;2023-06-26T00:41:01;11.40;;;8.20;;
50309;SDS011;36207;51.850;21.698;2023-06-26T00:43:26;11.40;;;8.30;;
50309;SDS011;36207;51.850;21.698;2023-06-26T00:45:53;11.20;;;7.60;;
50309;SDS011;36207;51.850;21.698;2023-06-26T00:48:19;11.50;;;8.10;;
50309;SDS011;36207;51.850;21.698;2023-06-26T00:50:45;10.40;;;8.50;;
50309;SDS011;36207;51.850;21.698;2023-06-26T00:53:11;12.80;;;8.00;;
50309;SDS011;36207;51.850;21.698;2023-06-26T00:55:37;10.70;;;7.30;;
50309;SDS011;36207;51.850;21.698;2023-06-26T00:58:03;12.60;;;7.70;;
50309;SDS011;36207;51.850;21.698;2023-06-26T01:00:30;7.90;;;6.30;;
50309;SDS011;36207;51.850;21.698;2023-06-26T01:02:56;11.00;;;7.60;;
50309;SDS011;36207;51.850;21.698;2023-06-26T01:05:25;11.20;;;8.50;;
50309;SDS011;36207;51.850;21.698;2023-06-26T01:07:52;11.40;;;8.50;;
50309;SDS011;36207;51.850;21.698;2023-06-26T01:10:19;10.80;;;8.50;;
50309;SDS011;36207;51.850;21.698;2023-06-26T01:12:46;13.30;;;8.60;;
50309;SDS011;36207;51.850;21.698;2023-06-26T01:15:12;10.10;;;8.10;;
50309;SDS011;36207;51.850;21.698;2023-06-26T01:17:38;13.50;;;8.60;;
50309;SDS011;36207;51.850;21.698;2023-06-26T01:20:06;10.90;;;8.30;;
50309;SDS011;36207;51.850;21.698;2023-06-26T01:22:43;12.20;;;7.60;;
50309;SDS011;36207;51.850;21.698;2023-06-26T01:25:29;12.80;;;7.50;;
50309;SDS011;36207;51.850;21.698;2023-06-26T01:28:06;13.80;;;8.70;;
50309;SDS011;36207;51.850;21.698;2023-06-26T01:30:37;12.70;;;8.10;;
50309;SDS011;36207;51.850;21.698;2023-06-26T01:33:06;12.60;;;8.40;;
50309;SDS011;36207;51.850;21.698;2023-06-26T01:35:32;11.00;;;8.20;;
50309;SDS011;36207;51.850;21.698;2023-06-26T01:38:19;10.20;;;7.90;;
50309;SDS011;36207;51.850;21.698;2023-06-26T01:40:46;10.70;;;8.00;;
50309;SDS011;36207;51.850;21.698;2023-06-26T01:43:18;10.40;;;8.30;;
50309;SDS011;36207;51.850;21.698;2023-06-26T01:45:58;11.40;;;8.80;;
50309;SDS011;36207;51.850;21.698;2023-06-26T01:48:30;12.50;;;8.70;;
50309;SDS011;36207;51.850;21.698;2023-06-26T01:51:12;10.60;;;8.20;;
50309;SDS011;36207;51.850;21.698;2023-06-26T01:53:42;10.00;;;7.70;;
50309;SDS011;36207;51.850;21.698;2023-06-26T01:56:13;11.20;;;8.20;;
50309;SDS011;36207;51.850;21.698;2023-06-26T01:58:43;9.00;;;6.10;;
50309;SDS011;36207;51.850;21.698;2023-06-26T02:01:11;12.10;;;7.90;;
50309;SDS011;36207;51.850;21.698;2023-06-26T02:03:37;11.10;;;8.70;;
50309;SDS011;36207;51.850;21.698;2023-06-26T02:06:03;11.10;;;9.20;;
50309;SDS011;36207;51.850;21.698;2023-06-26T02:08:29;11.60;;;9.10;;
50309;SDS011;36207;51.850;21.698;2023-06-26T02:10:55;11.60;;;8.70;;
50309;SDS011;36207;51.850;21.698;2023-06-26T02:13:21;12.30;;;8.50;;
50309;SDS011;36207;51.850;21.698;2023-06-26T02:15:47;10.60;;;8.30;;
50309;SDS011;36207;51.850;21.698;2023-06-26T02:18:13;10.90;;;8.60;;
50309;SDS011;36207;51.850;21.698;2023-06-26T02:20:39;13.00;;;8.70;;
50309;SDS011;36207;51.850;21.698;2023-06-26T02:23:05;11.80;;;8.60;;
50309;SDS011;36207;51.850;21.698;2023-06-26T02:25:32;13.60;;;9.10;;
50309;SDS011;36207;51.850;21.698;2023-06-26T02:27:58;10.70;;;8.60;;
50309;SDS011;36207;51.850;21.698;2023-06-26T02:30:24;12.50;;;9.50;;
50309;SDS011;36207;51.850;21.698;2023-06-26T02:32:50;14.80;;;8.70;;
50309;SDS011;36207;51.850;21.698;2023-06-26T02:35:16;15.80;;;9.40;;
50309;SDS011;36207;51.850;21.698;2023-06-26T02:37:41;13.00;;;9.10;;
50309;SDS011;36207;51.850;21.698;2023-06-26T02:40:07;12.80;;;9.80;;
50309;SDS011;36207;51.850;21.698;2023-06-26T02:42:35;13.40;;;9.50;;
50309;SDS011;36207;51.850;21.698;2023-06-26T02:45:01;14.30;;;9.20;;
50309;SDS011;36207;51.850;21.698;2023-06-26T02:47:27;14.60;;;9.10;;
50309;SDS011;36207;51.850;21.698;2023-06-26T02:49:53;14.20;;;9.00;;
50309;SDS011;36207;51.850;21.698;2023-06-26T02:52:18;12.10;;;9.30;;
50309;SDS011;36207;51.850;21.698;2023-06-26T02:54:45;13.50;;;9.70;;
50309;SDS011;36207;51.850;21.698;2023-06-26T02:57:11;14.00;;;9.70;;
50309;SDS011;36207;51.850;21.698;2023-06-26T02:59:40;15.20;;;9.60;;
50309;SDS011;36207;51.850;21.698;2023-06-26T03:02:06;13.60;;;10.50;;
50309;SDS011;36207;51.850;21.698;2023-06-26T03:04:32;14.50;;;9.80;;
50309;SDS011;36207;51.850;21.698;2023-06-26T03:07:02;14.10;;;9.70;;
50309;SDS011;36207;51.850;21.698;2023-06-26T03:09:29;14.00;;;9.90;;
50309;SDS011;36207;51.850;21.698;2023-06-26T03:11:54;14.80;;;9.90;;
50309;SDS011;36207;51.850;21.698;2023-06-26T03:14:21;13.50;;;10.00;;
50309;SDS011;36207;51.850;21.698;2023-06-26T03:16:47;13.30;;;9.30;;
50309;SDS011;36207;51.850;21.698;2023-06-26T03:19:13;13.60;;;9.30;;
50309;SDS011;36207;51.850;21.698;2023-06-26T03:21:39;13.00;;;9.70;;
50309;SDS011;36207;51.850;21.698;2023-06-26T03:24:05;12.50;;;9.10;;
50309;SDS011;36207;51.850;21.698;2023-06-26T03:26:31;15.50;;;10.10;;
50309;SDS011;36207;51.850;21.698;2023-06-26T03:28:58;17.10;;;9.50;;
50309;SDS011;36207;51.850;21.698;2023-06-26T03:31:24;22.10;;;9.60;;
50309;SDS011;36207;51.850;21.698;2023-06-26T03:33:50;15.10;;;10.20;;
50309;SDS011;36207;51.850;21.698;2023-06-26T03:36:16;16.50;;;10.80;;
50309;SDS011;36207;51.850;21.698;2023-06-26T03:38:42;14.30;;;9.70;;
50309;SDS011;36207;51.850;21.698;2023-06-26T03:41:08;13.20;;;9.80;;
50309;SDS011;36207;51.850;21.698;2023-06-26T03:43:34;12.80;;;9.40;;
50309;SDS011;36207;51.850;21.698;2023-06-26T03:46:00;12.90;;;9.60;;
50309;SDS011;36207;51.850;21.698;2023-06-26T03:48:26;14.10;;;9.70;;
50309;SDS011;36207;51.850;21.698;2023-06-26T03:50:52;16.30;;;9.40;;
50309;SDS011;36207;51.850;21.698;2023-06-26T03:53:18;12.80;;;9.30;;
50309;SDS011;36207;51.850;21.698;2023-06-26T03:55:44;16.50;;;9.90;;
50309;SDS011;36207;51.850;21.698;2023-06-26T03:58:10;13.20;;;9.20;;
50309;SDS011;36207;51.850;21.698;2023-06-26T04:00:35;15.80;;;9.40;;
50309;SDS011;36207;51.850;21.698;2023-06-26T04:03:01;15.10;;;9.60;;
50309;SDS011;36207;51.850;21.698;2023-06-26T04:05:28;14.30;;;9.70;;
50309;SDS011;36207;51.850;21.698;2023-06-26T04:07:54;14.80;;;10.20;;
50309;SDS011;36207;51.850;21.698;2023-06-26T04:10:20;13.80;;;10.00;;
50309;SDS011;36207;51.850;21.698;2023-06-26T04:12:47;16.10;;;10.00;;
50309;SDS011;36207;51.850;21.698;2023-06-26T04:15:13;14.10;;;9.70;;
50309;SDS011;36207;51.850;21.698;2023-06-26T04:17:39;15.00;;;9.30;;
50309;SDS011;36207;51.850;21.698;2023-06-26T04:20:05;13.40;;;10.00;;
50309;SDS011;36207;51.850;21.698;2023-06-26T04:22:33;16.70;;;9.20;;
50309;SDS011;36207;51.850;21.698;2023-06-26T04:25:02;12.20;;;9.70;;
50309;SDS011;36207;51.850;21.698;2023-06-26T04:27:29;13.40;;;9.90;;
50309;SDS011;36207;51.850;21.698;2023-06-26T04:29:55;18.20;;;9.80;;
50309;SDS011;36207;51.850;21.698;2023-06-26T04:32:21;15.00;;;8.90;;
50309;SDS011;36207;51.850;21.698;2023-06-26T04:34:48;14.20;;;9.40;;
50309;SDS011;36207;51.850;21.698;2023-06-26T04:37:14;12.60;;;9.20;;
50309;SDS011;36207;51.850;21.698;2023-06-26T04:39:42;15.60;;;9.50;;
50309;SDS011;36207;51.850;21.698;2023-06-26T04:42:09;12.20;;;9.50;;
50309;SDS011;36207;51.850;21.698;2023-06-26T04:44:37;11.80;;;9.30;;
50309;SDS011;36207;51.850;21.698;2023-06-26T04:47:04;14.30;;;9.60;;
50309;SDS011;36207;51.850;21.698;2023-06-26T04:49:30;12.60;;;9.00;;
50309;SDS011;36207;51.850;21.698;2023-06-26T04:51:56;12.10;;;8.70;;
50309;SDS011;36207;51.850;21.698;2023-06-26T04:54:22;19.50;;;8.80;;
50309;SDS011;36207;51.850;21.698;2023-06-26T04:56:48;12.10;;;8.50;;
50309;SDS011;36207;51.850;21.698;2023-06-26T04:59:14;11.10;;;8.60;;
50309;SDS011;36207;51.850;21.698;2023-06-26T05:01:40;10.90;;;8.30;;
50309;SDS011;36207;51.850;21.698;2023-06-26T05:04:07;14.10;;;8.30;;
50309;SDS011;36207;51.850;21.698;2023-06-26T05:06:33;10.10;;;8.00;;
50309;SDS011;36207;51.850;21.698;2023-06-26T05:08:59;10.50;;;7.60;;
50309;SDS011;36207;51.850;21.698;2023-06-26T05:11:25;10.00;;;7.20;;
50309;SDS011;36207;51.850;21.698;2023-06-26T05:13:51;12.40;;;7.20;;
50309;SDS011;36207;51.850;21.698;2023-06-26T05:16:17;11.60;;;6.80;;
50309;SDS011;36207;51.850;21.698;2023-06-26T05:18:43;9.70;;;7.10;;
50309;SDS011;36207;51.850;21.698;2023-06-26T05:21:09;15.60;;;7.20;;
50309;SDS011;36207;51.850;21.698;2023-06-26T05:23:36;11.80;;;6.90;;
50309;SDS011;36207;51.850;21.698;2023-06-26T05:26:02;8.90;;;6.90;;
50309;SDS011;36207;51.850;21.698;2023-06-26T05:28:29;9.20;;;6.80;;
50309;SDS011;36207;51.850;21.698;2023-06-26T05:31:01;9.70;;;7.00;;
50309;SDS011;36207;51.850;21.698;2023-06-26T05:33:30;10.80;;;6.80;;
50309;SDS011;36207;51.850;21.698;2023-06-26T05:36:00;8.70;;;6.20;;
50309;SDS011;36207;51.850;21.698;2023-06-26T05:38:29;9.90;;;6.40;;
50309;SDS011;36207;51.850;21.698;2023-06-26T05:40:56;11.90;;;6.60;;
50309;SDS011;36207;51.850;21.698;2023-06-26T05:43:22;8.40;;;6.10;;
50309;SDS011;36207;51.850;21.698;2023-06-26T05:45:49;8.90;;;6.30;;
50309;SDS011;36207;51.850;21.698;2023-06-26T05:48:15;10.10;;;6.00;;
50309;SDS011;36207;51.850;21.698;2023-06-26T05:50:41;9.30;;;6.20;;
50309;SDS011;36207;51.850;21.698;2023-06-26T05:53:09;7.70;;;5.40;;
50309;SDS011;36207;51.850;21.698;2023-06-26T05:55:35;6.40;;;5.10;;
50309;SDS011;36207;51.850;21.698;2023-06-26T05:58:02;10.80;;;5.50;;
50309;SDS011;36207;51.850;21.698;2023-06-26T06:00:29;8.30;;;5.10;;
50309;SDS011;36207;51.850;21.698;2023-06-26T06:02:55;7.90;;;5.70;;
50309;SDS011;36207;51.850;21.698;2023-06-26T06:05:22;7.50;;;5.60;;
50309;SDS011;36207;51.850;21.698;2023-06-26T06:07:49;7.60;;;5.10;;
50309;SDS011;36207;51.850;21.698;2023-06-26T06:10:16;7.00;;;5.10;;
50309;SDS011;36207;51.850;21.698;2023-06-26T06:12:42;7.50;;;5.20;;
50309;SDS011;36207;51.850;21.698;2023-06-26T06:15:08;7.80;;;5.10;;
50309;SDS011;36207;51.850;21.698;2023-06-26T06:17:34;6.60;;;4.90;;
50309;SDS011;36207;51.850;21.698;2023-06-26T06:20:00;10.00;;;5.30;;
50309;SDS011;36207;51.850;21.698;2023-06-26T06:22:26;7.80;;;5.10;;
50309;SDS011;36207;51.850;21.698;2023-06-26T06:24:52;7.00;;;5.00;;
50309;SDS011;36207;51.850;21.698;2023-06-26T06:27:19;6.70;;;5.00;;
50309;SDS011;36207;51.850;21.698;2023-06-26T06:29:45;11.50;;;5.10;;
50309;SDS011;36207;51.850;21.698;2023-06-26T06:32:11;6.50;;;4.80;;
50309;SDS011;36207;51.850;21.698;2023-06-26T06:34:37;6.60;;;5.20;;
50309;SDS011;36207;51.850;21.698;2023-06-26T06:37:03;6.70;;;4.50;;
50309;SDS011;36207;51.850;21.698;2023-06-26T06:39:30;7.10;;;4.70;;
50309;SDS011;36207;51.850;21.698;2023-06-26T06:41:56;7.30;;;5.00;;
50309;SDS011;36207;51.850;21.698;2023-06-26T06:44:22;10.00;;;5.20;;
50309;SDS011;36207;51.850;21.698;2023-06-26T06:46:48;5.70;;;4.50;;
50309;SDS011;36207;51.850;21.698;2023-06-26T06:49:14;8.60;;;4.80;;
50309;SDS011;36207;51.850;21.698;2023-06-26T06:51:40;6.40;;;4.90;;
50309;SDS011;36207;51.850;21.698;2023-06-26T06:54:07;8.10;;;5.00;;
50309;SDS011;36207;51.850;21.698;2023-06-26T06:56:33;5.80;;;4.50;;
50309;SDS011;36207;51.850;21.698;2023-06-26T06:59:01;6.70;;;5.40;;
50309;SDS011;36207;51.850;21.698;2023-06-26T07:01:28;6.30;;;4.90;;
50309;SDS011;36207;51.850;21.698;2023-06-26T07:03:54;9.30;;;5.60;;
50309;SDS011;36207;51.850;21.698;2023-06-26T07:06:20;8.10;;;5.20;;
50309;SDS011;36207;51.850;21.698;2023-06-26T07:08:46;6.90;;;5.20;;
50309;SDS011;36207;51.850;21.698;2023-06-26T07:11:13;7.50;;;5.10;;
50309;SDS011;36207;51.850;21.698;2023-06-26T07:13:39;6.80;;;5.00;;
50309;SDS011;36207;51.850;21.698;2023-06-26T07:16:05;6.40;;;4.80;;
50309;SDS011;36207;51.850;21.698;2023-06-26T07:18:31;8.00;;;5.20;;
50309;SDS011;36207;51.850;21.698;2023-06-26T07:20:57;6.90;;;4.90;;
50309;SDS011;36207;51.850;21.698;2023-06-26T07:23:23;8.90;;;5.30;;
50309;SDS011;36207;51.850;21.698;2023-06-26T07:25:49;8.20;;;5.50;;
50309;SDS011;36207;51.850;21.698;2023-06-26T07:28:15;7.60;;;5.80;;
50309;SDS011;36207;51.850;21.698;2023-06-26T07:30:47;8.30;;;6.10;;
50309;SDS011;36207;51.850;21.698;2023-06-26T07:33:14;10.00;;;5.80;;
50309;SDS011;36207;51.850;21.698;2023-06-26T07:35:40;8.90;;;5.90;;
50309;SDS011;36207;51.850;21.698;2023-06-26T07:38:09;7.80;;;6.00;;
50309;SDS011;36207;51.850;21.698;2023-06-26T07:40:38;10.50;;;6.00;;
50309;SDS011;36207;51.850;21.698;2023-06-26T07:43:04;9.10;;;6.40;;
50309;SDS011;36207;51.850;21.698;2023-06-26T07:45:33;11.50;;;6.40;;
50309;SDS011;36207;51.850;21.698;2023-06-26T07:48:01;11.80;;;6.30;;
50309;SDS011;36207;51.850;21.698;2023-06-26T07:50:27;9.80;;;6.50;;
50309;SDS011;36207;51.850;21.698;2023-06-26T07:52:56;7.30;;;5.40;;
50309;SDS011;36207;51.850;21.698;2023-06-26T07:55:22;7.60;;;5.40;;
50309;SDS011;36207;51.850;21.698;2023-06-26T07:57:49;9.40;;;6.20;;
50309;SDS011;36207;51.850;21.698;2023-06-26T08:00:23;7.20;;;5.90;;
50309;SDS011;36207;51.850;21.698;2023-06-26T08:02:55;7.90;;;6.30;;
50309;SDS011;36207;51.850;21.698;2023-06-26T08:05:24;10.50;;;6.60;;
50309;SDS011;36207;51.850;21.698;2023-06-26T08:07:50;8.30;;;5.70;;
50309;SDS011;36207;51.850;21.698;2023-06-26T08:10:20;7.30;;;5.80;;
50309;SDS011;36207;51.850;21.698;2023-06-26T08:12:56;7.80;;;5.80;;
50309;SDS011;36207;51.850;21.698;2023-06-26T08:15:23;6.80;;;5.70;;
50309;SDS011;36207;51.850;21.698;2023-06-26T08:17:49;7.30;;;5.50;;
50309;SDS011;36207;51.850;21.698;2023-06-26T08:20:16;8.10;;;5.50;;
50309;SDS011;36207;51.850;21.698;2023-06-26T08:22:42;6.80;;;5.40;;
50309;SDS011;36207;51.850;21.698;2023-06-26T08:25:15;11.70;;;5.90;;
50309;SDS011;36207;51.850;21.698;2023-06-26T08:27:41;9.40;;;5.50;;
50309;SDS011;36207;51.850;21.698;2023-06-26T08:30:10;6.70;;;5.20;;
50309;SDS011;36207;51.850;21.698;2023-06-26T08:32:38;8.90;;;5.60;;
50309;SDS011;36207;51.850;21.698;2023-06-26T08:35:06;7.90;;;5.60;;
50309;SDS011;36207;51.850;21.698;2023-06-26T08:37:35;7.70;;;5.50;;
50309;SDS011;36207;51.850;21.698;2023-06-26T08:40:02;6.90;;;5.30;;
50309;SDS011;36207;51.850;21.698;2023-06-26T08:42:29;6.60;;;5.00;;
50309;SDS011;36207;51.850;21.698;2023-06-26T08:44:56;8.00;;;5.50;;
50309;SDS011;36207;51.850;21.698;2023-06-26T08:47:22;8.50;;;5.30;;
50309;SDS011;36207;51.850;21.698;2023-06-26T08:49:56;7.70;;;5.40;;
50309;SDS011;36207;51.850;21.698;2023-06-26T08:55:27;9.30;;;4.90;;
50309;SDS011;36207;51.850;21.698;2023-06-26T08:57:54;6.60;;;4.80;;
50309;SDS011;36207;51.850;21.698;2023-06-26T09:00:26;5.70;;;4.40;;
50309;SDS011;36207;51.850;21.698;2023-06-26T09:02:52;5.90;;;4.70;;
50309;SDS011;36207;51.850;21.698;2023-06-26T09:05:22;5.10;;;4.40;;
50309;SDS011;36207;51.850;21.698;2023-06-26T09:07:48;6.10;;;4.60;;
50309;SDS011;36207;51.850;21.698;2023-06-26T09:10:17;7.10;;;5.00;;
50309;SDS011;36207;51.850;21.698;2023-06-26T09:12:45;5.80;;;4.50;;
50309;SDS011;36207;51.850;21.698;2023-06-26T09:15:19;6.80;;;4.70;;
50309;SDS011;36207;51.850;21.698;2023-06-26T09:17:45;6.70;;;4.90;;
50309;SDS011;36207;51.850;21.698;2023-06-26T09:20:14;6.50;;;4.70;;
50309;SDS011;36207;51.850;21.698;2023-06-26T09:22:42;7.20;;;4.70;;
50309;SDS011;36207;51.850;21.698;2023-06-26T09:25:15;6.40;;;4.60;;
50309;SDS011;36207;51.850;21.698;2023-06-26T09:27:43;5.80;;;4.60;;
50309;SDS011;36207;51.850;21.698;2023-06-26T09:30:10;6.10;;;4.60;;
50309;SDS011;36207;51.850;21.698;2023-06-26T09:32:39;7.10;;;4.80;;
50309;SDS011;36207;51.850;21.698;2023-06-26T09:35:15;6.30;;;4.70;;
50309;SDS011;36207;51.850;21.698;2023-06-26T09:37:41;5.80;;;4.40;;
50309;SDS011;36207;51.850;21.698;2023-06-26T09:40:09;5.80;;;4.50;;
50309;SDS011;36207;51.850;21.698;2023-06-26T09:42:39;5.70;;;4.40;;
50309;SDS011;36207;51.850;21.698;2023-06-26T09:45:12;5.90;;;4.40;;
50309;SDS011;36207;51.850;21.698;2023-06-26T09:47:45;5.40;;;4.30;;
50309;SDS011;36207;51.850;21.698;2023-06-26T09:50:20;7.30;;;4.70;;
50309;SDS011;36207;51.850;21.698;2023-06-26T09:52:50;5.70;;;4.40;;
50309;SDS011;36207;51.850;21.698;2023-06-26T09:55:19;6.80;;;4.80;;
50309;SDS011;36207;51.850;21.698;2023-06-26T09:57:49;6.20;;;4.70;;
50309;SDS011;36207;51.850;21.698;2023-06-26T10:00:18;6.40;;;4.00;;
50309;SDS011;36207;51.850;21.698;2023-06-26T10:02:45;6.50;;;4.80;;
50309;SDS011;36207;51.850;21.698;2023-06-26T10:05:12;6.20;;;4.60;;
50309;SDS011;36207;51.850;21.698;2023-06-26T10:07:39;7.20;;;4.60;;
50309;SDS011;36207;51.850;21.698;2023-06-26T10:10:21;5.10;;;4.40;;
50309;SDS011;36207;51.850;21.698;2023-06-26T10:12:50;6.10;;;4.50;;
50309;SDS011;36207;51.850;21.698;2023-06-26T10:15:22;7.10;;;4.50;;
50309;SDS011;36207;51.850;21.698;2023-06-26T10:17:49;5.00;;;4.30;;
50309;SDS011;36207;51.850;21.698;2023-06-26T10:20:17;5.20;;;4.40;;
50309;SDS011;36207;51.850;21.698;2023-06-26T10:22:49;5.80;;;4.50;;
50309;SDS011;36207;51.850;21.698;2023-06-26T10:25:19;8.50;;;4.60;;
50309;SDS011;36207;51.850;21.698;2023-06-26T10:28:04;9.50;;;4.30;;
50309;SDS011;36207;51.850;21.698;2023-06-26T10:30:38;6.10;;;4.30;;
50309;SDS011;36207;51.850;21.698;2023-06-26T10:33:08;7.90;;;4.00;;
50309;SDS011;36207;51.850;21.698;2023-06-26T10:38:50;5.90;;;4.30;;
50309;SDS011;36207;51.850;21.698;2023-06-26T10:41:22;7.70;;;4.30;;
50309;SDS011;36207;51.850;21.698;2023-06-26T10:46:25;7.00;;;4.40;;
50309;SDS011;36207;51.850;21.698;2023-06-26T10:49:00;6.00;;;4.20;;
50309;SDS011;36207;51.850;21.698;2023-06-26T10:51:30;6.20;;;4.30;;
50309;SDS011;36207;51.850;21.698;2023-06-26T10:53:57;5.60;;;4.30;;
50309;SDS011;36207;51.850;21.698;2023-06-26T10:59:17;7.20;;;4.30;;
50309;SDS011;36207;51.850;21.698;2023-06-26T11:01:46;6.40;;;4.50;;
50309;SDS011;36207;51.850;21.698;2023-06-26T11:04:39;5.80;;;4.20;;
50309;SDS011;36207;51.850;21.698;2023-06-26T11:07:16;6.60;;;4.20;;
50309;SDS011;36207;51.850;21.698;2023-06-26T11:09:53;5.60;;;4.40;;
50309;SDS011;36207;51.850;21.698;2023-06-26T11:15:03;7.80;;;4.40;;
50309;SDS011;36207;51.850;21.698;2023-06-26T11:17:34;7.30;;;4.30;;
50309;SDS011;36207;51.850;21.698;2023-06-26T11:20:02;6.90;;;4.40;;
50309;SDS011;36207;51.850;21.698;2023-06-26T11:22:31;7.30;;;4.40;;
50309;SDS011;36207;51.850;21.698;2023-06-26T11:25:00;5.70;;;4.40;;
50309;SDS011;36207;51.850;21.698;2023-06-26T11:27:32;5.50;;;4.20;;
50309;SDS011;36207;51.850;21.698;2023-06-26T11:30:09;5.90;;;4.20;;
50309;SDS011;36207;51.850;21.698;2023-06-26T11:32:39;5.90;;;4.20;;
50309;SDS011;36207;51.850;21.698;2023-06-26T11:35:06;6.20;;;4.50;;
50309;SDS011;36207;51.850;21.698;2023-06-26T11:37:34;8.70;;;4.30;;
50309;SDS011;36207;51.850;21.698;2023-06-26T11:40:18;5.20;;;4.20;;
50309;SDS011;36207;51.850;21.698;2023-06-26T11:42:47;5.60;;;4.20;;
50309;SDS011;36207;51.850;21.698;2023-06-26T11:45:14;5.30;;;4.10;;
50309;SDS011;36207;51.850;21.698;2023-06-26T11:47:41;6.30;;;4.30;;
50309;SDS011;36207;51.850;21.698;2023-06-26T11:50:14;7.00;;;4.50;;
50309;SDS011;36207;51.850;21.698;2023-06-26T11:52:42;5.80;;;4.10;;
50309;SDS011;36207;51.850;21.698;2023-06-26T11:55:10;6.60;;;4.60;;
50309;SDS011;36207;51.850;21.698;2023-06-26T11:57:39;5.20;;;4.30;;
50309;SDS011;36207;51.850;21.698;2023-06-26T12:00:11;5.00;;;4.30;;
50309;SDS011;36207;51.850;21.698;2023-06-26T12:02:44;6.50;;;4.70;;
50309;SDS011;36207;51.850;21.698;2023-06-26T12:05:15;5.50;;;4.30;;
50309;SDS011;36207;51.850;21.698;2023-06-26T12:07:42;5.50;;;4.30;;
50309;SDS011;36207;51.850;21.698;2023-06-26T12:10:10;4.90;;;4.20;;
50309;SDS011;36207;51.850;21.698;2023-06-26T12:12:38;6.10;;;3.80;;
50309;SDS011;36207;51.850;21.698;2023-06-26T12:15:06;7.00;;;4.40;;
50309;SDS011;36207;51.850;21.698;2023-06-26T12:17:33;5.50;;;4.20;;
50309;SDS011;36207;51.850;21.698;2023-06-26T12:20:05;5.40;;;3.90;;
50309;SDS011;36207;51.850;21.698;2023-06-26T12:22:42;7.80;;;4.20;;
50309;SDS011;36207;51.850;21.698;2023-06-26T12:25:09;7.10;;;4.10;;
50309;SDS011;36207;51.850;21.698;2023-06-26T12:27:35;4.70;;;4.00;;
50309;SDS011;36207;51.850;21.698;2023-06-26T12:30:04;7.40;;;4.00;;
50309;SDS011;36207;51.850;21.698;2023-06-26T12:32:31;5.10;;;4.20;;
50309;SDS011;36207;51.850;21.698;2023-06-26T12:34:58;5.30;;;3.90;;
50309;SDS011;36207;51.850;21.698;2023-06-26T12:37:24;8.00;;;4.00;;
50309;SDS011;36207;51.850;21.698;2023-06-26T12:39:56;5.90;;;3.90;;
50309;SDS011;36207;51.850;21.698;2023-06-26T12:42:23;4.40;;;3.70;;
50309;SDS011;36207;51.850;21.698;2023-06-26T12:44:51;4.90;;;3.90;;
50309;SDS011;36207;51.850;21.698;2023-06-26T12:47:19;4.90;;;3.90;;
50309;SDS011;36207;51.850;21.698;2023-06-26T12:49:50;7.10;;;4.20;;
50309;SDS011;36207;51.850;21.698;2023-06-26T12:52:17;4.70;;;4.10;;
50309;SDS011;36207;51.850;21.698;2023-06-26T12:54:53;4.00;;;3.60;;
50309;SDS011;36207;51.850;21.698;2023-06-26T12:57:21;6.00;;;3.80;;
50309;SDS011;36207;51.850;21.698;2023-06-26T12:59:48;4.00;;;3.60;;
50309;SDS011;36207;51.850;21.698;2023-06-26T13:02:17;5.30;;;4.00;;
50309;SDS011;36207;51.850;21.698;2023-06-26T13:04:44;5.10;;;4.00;;
50309;SDS011;36207;51.850;21.698;2023-06-26T13:07:11;5.40;;;3.80;;
50309;SDS011;36207;51.850;21.698;2023-06-26T13:09:37;6.10;;;4.20;;
50309;SDS011;36207;51.850;21.698;2023-06-26T13:12:05;7.20;;;4.10;;
50309;SDS011;36207;51.850;21.698;2023-06-26T13:14:31;7.90;;;3.90;;
50309;SDS011;36207;51.850;21.698;2023-06-26T13:17:00;6.50;;;4.20;;
50309;SDS011;36207;51.850;21.698;2023-06-26T13:19:26;5.50;;;4.20;;
50309;SDS011;36207;51.850;21.698;2023-06-26T13:21:53;5.50;;;3.80;;
50309;SDS011;36207;51.850;21.698;2023-06-26T13:24:19;6.10;;;4.00;;
50309;SDS011;36207;51.850;21.698;2023-06-26T13:26:46;4.50;;;3.90;;
50309;SDS011;36207;51.850;21.698;2023-06-26T13:29:12;5.20;;;4.00;;
50309;SDS011;36207;51.850;21.698;2023-06-26T13:31:42;6.40;;;4.20;;
50309;SDS011;36207;51.850;21.698;2023-06-26T13:34:08;5.70;;;4.20;;
50309;SDS011;36207;51.850;21.698;2023-06-26T13:36:48;4.10;;;3.70;;
50309;SDS011;36207;51.850;21.698;2023-06-26T13:39:15;7.30;;;4.20;;
50309;SDS011;36207;51.850;21.698;2023-06-26T13:41:41;7.70;;;4.00;;
50309;SDS011;36207;51.850;21.698;2023-06-26T13:44:07;5.50;;;4.10;;
50309;SDS011;36207;51.850;21.698;2023-06-26T13:46:36;6.40;;;4.00;;
50309;SDS011;36207;51.850;21.698;2023-06-26T13:49:05;4.00;;;3.60;;
50309;SDS011;36207;51.850;21.698;2023-06-26T13:51:31;4.90;;;4.20;;
50309;SDS011;36207;51.850;21.698;2023-06-26T13:53:58;4.90;;;3.90;;
50309;SDS011;36207;51.850;21.698;2023-06-26T13:56:26;5.60;;;4.00;;
50309;SDS011;36207;51.850;21.698;2023-06-26T13:58:56;5.70;;;3.70;;
50309;SDS011;36207;51.850;21.698;2023-06-26T14:01:25;8.00;;;4.20;;
50309;SDS011;36207;51.850;21.698;2023-06-26T14:03:54;4.90;;;3.80;;
50309;SDS011;36207;51.850;21.698;2023-06-26T14:06:20;7.40;;;4.10;;
50309;SDS011;36207;51.850;21.698;2023-06-26T14:08:46;5.30;;;4.00;;
50309;SDS011;36207;51.850;21.698;2023-06-26T14:11:12;11.30;;;3.90;;
50309;SDS011;36207;51.850;21.698;2023-06-26T14:13:41;4.00;;;3.60;;
50309;SDS011;36207;51.850;21.698;2023-06-26T14:16:08;6.50;;;3.80;;
50309;SDS011;36207;51.850;21.698;2023-06-26T14:18:42;4.90;;;3.80;;
50309;SDS011;36207;51.850;21.698;2023-06-26T14:21:13;5.40;;;3.70;;
50309;SDS011;36207;51.850;21.698;2023-06-26T14:23:40;5.20;;;3.90;;
50309;SDS011;36207;51.850;21.698;2023-06-26T14:26:07;7.60;;;3.50;;
50309;SDS011;36207;51.850;21.698;2023-06-26T14:28:38;4.20;;;3.50;;
50309;SDS011;36207;51.850;21.698;2023-06-26T14:31:07;4.80;;;3.80;;
50309;SDS011;36207;51.850;21.698;2023-06-26T14:33:36;6.20;;;3.60;;
50309;SDS011;36207;51.850;21.698;2023-06-26T14:36:12;5.00;;;3.70;;
50309;SDS011;36207;51.850;21.698;2023-06-26T14:38:40;4.30;;;3.70;;
50309;SDS011;36207;51.850;21.698;2023-06-26T14:41:07;5.30;;;3.80;;
50309;SDS011;36207;51.850;21.698;2023-06-26T14:43:33;4.50;;;3.80;;
50309;SDS011;36207;51.850;21.698;2023-06-26T14:46:02;6.20;;;3.60;;
50309;SDS011;36207;51.850;21.698;2023-06-26T14:48:31;5.20;;;3.80;;